Time;durP1;ratioP1;P1;durP2;ratioP2;P2;SDS_P1;SDS_P2;PMS_P1;PMS_P2;Temp;Humidity;BMP_temperature;BMP_pressure;BME280_temperature;BME280_humidity;BME280_pressure;Samples;Min_cycle;Max_cycle;Signal;HPM_P1;HPM_P2
2023/03/28 00:00:50;;;;;;;0.88;0.10;;;;;;;-2.31;69.99;100645.72;5033678;28;20053;-70
2023/03/28 00:03:21;;;;;;;0.60;0.10;;;;;;;-2.25;69.79;100657.84;5036370;28;20059;-70
2023/03/28 00:05:49;;;;;;;3.67;0.20;;;;;;;-2.30;70.14;100641.50;5037575;28;20406;-70
2023/03/28 00:08:16;;;;;;;0.20;0.20;;;;;;;-2.27;70.40;100651.81;5036957;28;20064;-70
2023/03/28 00:10:43;;;;;;;0.93;0.17;;;;;;;-2.25;70.32;100665.50;5032503;28;20551;-70
2023/03/28 00:13:12;;;;;;;0.55;0.10;;;;;;;-2.24;70.25;100663.84;5028729;28;20057;-70
2023/03/28 00:15:42;;;;;;;2.10;0.13;;;;;;;-2.24;70.04;100651.06;5037329;28;20049;-70
2023/03/28 00:18:10;;;;;;;2.00;0.10;;;;;;;-2.28;70.09;100657.75;5036922;28;20037;-70
2023/03/28 00:20:38;;;;;;;0.65;0.15;;;;;;;-2.25;70.47;100657.84;5033185;28;20140;-70
2023/03/28 00:23:06;;;;;;;0.10;0.10;;;;;;;-2.27;70.04;100651.81;5040648;28;20041;-70
2023/03/28 00:25:34;;;;;;;2.95;0.10;;;;;;;-2.26;69.95;100663.78;5037413;28;20100;-70
2023/03/28 00:28:02;;;;;;;1.63;0.10;;;;;;;-2.24;69.97;100666.41;5026309;28;20046;-70
2023/03/28 00:30:29;;;;;;;0.20;0.10;;;;;;;-2.25;70.50;100670.63;5039557;28;20042;-70
2023/03/28 00:32:57;;;;;;;0.10;0.10;;;;;;;-2.27;70.35;100668.03;5026749;28;20052;-70
2023/03/28 00:35:24;;;;;;;0.10;0.10;;;;;;;-2.26;70.28;100674.03;5031971;28;20468;-70
2023/03/28 00:37:56;;;;;;;1.95;0.10;;;;;;;-2.27;70.35;100670.59;5034574;28;20448;-70
2023/03/28 00:40:24;;;;;;;0.13;0.10;;;;;;;-2.26;70.19;100681.69;5034618;28;20052;-70
2023/03/28 00:42:51;;;;;;;0.10;0.10;;;;;;;-2.29;70.33;100673.94;5032327;28;20099;-71
2023/03/28 00:45:20;;;;;;;0.13;0.10;;;;;;;-2.26;70.29;100668.91;5031289;28;20056;-71
2023/03/28 00:47:51;;;;;;;0.77;0.20;;;;;;;-2.27;70.28;100670.59;5038660;28;20057;-70
2023/03/28 00:50:23;;;;;;;1.33;0.10;;;;;;;-2.27;70.28;100674.84;5034336;28;20057;-71
2023/03/28 00:52:56;;;;;;;0.47;0.17;;;;;;;-2.28;70.32;100670.53;5035082;28;20053;-70
2023/03/28 00:55:27;;;;;;;0.20;0.17;;;;;;;-2.29;70.30;100669.69;5034686;28;20041;-70
2023/03/28 00:57:54;;;;;;;1.75;0.10;;;;;;;-2.28;70.09;100680.78;5035636;28;20112;-70
2023/03/28 01:00:23;;;;;;;1.75;0.10;;;;;;;-2.30;70.01;100673.06;5041166;28;20048;-70
2023/03/28 01:02:53;;;;;;;0.40;0.10;;;;;;;-2.27;70.40;100674.84;5040222;28;20049;-70
2023/03/28 01:05:25;;;;;;;0.10;0.10;;;;;;;-2.27;70.10;100677.41;5042852;28;20059;-70
2023/03/28 01:07:57;;;;;;;1.13;0.20;;;;;;;-2.30;69.91;100673.06;5039847;28;20045;-70
2023/03/28 01:10:25;;;;;;;0.10;0.10;;;;;;;-2.28;70.00;100676.56;5038970;28;20049;-70
2023/03/28 01:12:54;;;;;;;0.40;0.10;;;;;;;-2.30;69.85;100688.41;5033491;28;20075;-69
2023/03/28 01:15:22;;;;;;;1.60;0.32;;;;;;;-2.28;70.38;100680.78;5039745;28;20468;-70
2023/03/28 01:17:49;;;;;;;0.20;0.10;;;;;;;-2.29;70.18;100686.72;5041458;28;20834;-70
2023/03/28 01:20:36;;;;;;;1.95;0.20;;;;;;;-2.27;70.29;100687.66;5036598;28;20049;-70
2023/03/28 01:23:42;;;;;;;0.80;0.10;;;;;;;-2.26;70.34;100694.50;5043536;28;20504;-70
2023/03/28 01:26:39;;;;;;;0.52;0.20;;;;;;;-2.28;69.69;100679.09;5041374;28;20491;-70
2023/03/28 01:29:45;;;;;;;1.40;0.20;;;;;;;-2.29;69.95;100695.25;5027637;28;20069;-70
2023/03/28 01:33:00;;;;;;;0.20;0.10;;;;;;;-2.28;69.96;100703.78;5042149;28;20507;-70
2023/03/28 01:35:56;;;;;;;0.30;0.20;;;;;;;-2.29;70.06;100704.63;5033853;28;20073;-70
2023/03/28 01:38:29;;;;;;;;;;;;;;;-2.28;70.03;100707.25;5040287;28;20060;-70
2023/03/28 01:41:05;;;;;;;2.38;0.20;;;;;;;-2.30;69.87;100705.47;5037473;28;19928;-70
2023/03/28 01:43:42;;;;;;;0.10;0.10;;;;;;;-2.31;70.42;100696.03;5034247;28;20469;-70
2023/03/28 01:46:15;;;;;;;0.22;0.20;;;;;;;-2.31;69.86;100702.00;5032937;28;20048;-70
2023/03/28 01:48:54;;;;;;;0.40;0.10;;;;;;;-2.31;69.84;100706.25;5027246;28;20053;-70
2023/03/28 01:51:28;;;;;;;0.45;0.13;;;;;;;-2.32;70.08;100701.97;5034628;28;20049;-70
2023/03/28 01:54:05;;;;;;;0.70;0.25;;;;;;;-2.34;69.79;100707.03;5038573;28;20053;-70
2023/03/28 01:56:38;;;;;;;2.75;0.10;;;;;;;-2.34;69.89;100701.91;5037894;28;20478;-70
2023/03/28 01:59:13;;;;;;;0.60;0.20;;;;;;;-2.34;70.06;100707.03;5039238;28;20505;-70
2023/03/28 02:01:52;;;;;;;0.20;0.10;;;;;;;-2.35;69.84;100707.00;5032423;28;20049;-70
2023/03/28 02:04:22;;;;;;;1.00;0.20;;;;;;;-2.33;70.17;100707.91;5036694;28;20068;-70
2023/03/28 02:06:51;;;;;;;1.15;0.10;;;;;;;-2.34;70.23;100709.59;5040322;28;20457;-70
2023/03/28 02:09:24;;;;;;;1.60;0.45;;;;;;;-2.35;70.02;100700.19;5041785;28;20060;-70
2023/03/28 02:11:56;;;;;;;1.33;0.32;;;;;;;-2.35;70.01;100702.75;5038246;28;20421;-70
2023/03/28 02:14:27;;;;;;;0.63;0.30;;;;;;;-2.34;69.62;100711.28;5040730;28;20425;-70
2023/03/28 02:16:59;;;;;;;3.28;0.20;;;;;;;-2.36;70.01;100708.69;5032460;28;20092;-70
2023/03/28 02:19:29;;;;;;;0.52;0.20;;;;;;;-2.36;70.09;100706.13;5037243;28;20073;-70
2023/03/28 02:22:00;;;;;;;0.52;0.20;;;;;;;-2.37;70.13;100708.63;5038016;28;20095;-70
2023/03/28 02:24:30;;;;;;;0.32;0.10;;;;;;;-2.36;69.98;100707.78;5035045;28;20461;-70
2023/03/28 02:26:57;;;;;;;0.25;0.20;;;;;;;-2.38;69.57;100710.31;5034557;28;20493;-70
2023/03/28 02:29:24;;;;;;;0.50;0.10;;;;;;;-2.38;69.79;100710.31;5041453;28;20040;-71
2023/03/28 02:31:51;;;;;;;0.47;0.10;;;;;;;-2.40;69.67;100711.94;5041953;28;20057;-70
2023/03/28 02:34:18;;;;;;;0.70;0.30;;;;;;;-2.43;69.77;100705.88;5032673;28;20059;-70
2023/03/28 02:36:53;;;;;;;0.50;0.10;;;;;;;-2.37;69.97;100721.41;5038711;28;20053;-69
2023/03/28 02:39:48;;;;;;;0.13;0.10;;;;;;;-2.37;70.04;100717.16;5031850;28;20049;-70
2023/03/28 02:42:49;;;;;;;2.17;0.13;;;;;;;-2.37;69.88;100717.16;5036807;28;20040;-70
2023/03/28 02:46:02;;;;;;;0.80;0.20;;;;;;;-2.37;69.95;100727.41;5022763;28;20044;-70
2023/03/28 02:48:44;;;;;;;0.30;0.10;;;;;;;-2.37;69.90;100727.41;4958818;28;20432;-70
2023/03/28 02:51:22;;;;;;;1.35;0.20;;;;;;;-2.36;70.04;100731.72;5021211;28;20052;-70
2023/03/28 02:53:57;;;;;;;0.40;0.10;;;;;;;-2.36;69.83;100729.16;5036493;28;20041;-71
2023/03/28 02:56:35;;;;;;;0.50;0.10;;;;;;;-2.38;69.93;100735.03;5043788;28;20401;-78
2023/03/28 02:59:07;;;;;;;0.20;0.10;;;;;;;-2.39;69.96;100725.59;5041789;28;20047;-72
2023/03/28 03:01:35;;;;;;;0.30;0.10;;;;;;;-2.37;70.16;100736.75;5035319;28;20057;-72
2023/03/28 03:04:02;;;;;;;0.25;0.13;;;;;;;-2.37;70.34;100734.19;5039498;28;20083;-73
2023/03/28 03:06:29;;;;;;;2.47;0.10;;;;;;;-2.37;70.02;100736.75;5038665;28;20056;-72
2023/03/28 03:08:56;;;;;;;1.40;0.20;;;;;;;-2.36;70.09;100741.06;5039622;28;20049;-72
2023/03/28 03:11:26;;;;;;;0.90;0.20;;;;;;;-2.37;70.56;100736.75;5038532;28;20041;-72
2023/03/28 03:13:56;;;;;;;2.35;0.20;;;;;;;-2.36;70.43;100743.59;5038026;28;20497;-72
2023/03/28 03:16:23;;;;;;;0.10;0.10;;;;;;;-2.36;70.34;100738.50;5038135;28;20128;-73
2023/03/28 03:18:50;;;;;;;2.33;0.10;;;;;;;-2.36;70.18;100734.28;5038262;28;20044;-72
2023/03/28 03:21:17;;;;;;;1.20;0.10;;;;;;;-2.37;70.27;100736.75;5042757;28;20045;-72
2023/03/28 03:23:44;;;;;;;1.75;0.20;;;;;;;-2.42;70.18;100723.84;5040462;28;20060;-72
2023/03/28 03:26:11;;;;;;;0.63;0.20;;;;;;;-2.40;70.53;100734.09;5039151;28;20052;-72
2023/03/28 03:28:38;;;;;;;0.70;0.20;;;;;;;-2.34;70.04;100741.97;5040689;28;20053;-72
2023/03/28 03:31:07;;;;;;;0.95;0.10;;;;;;;-2.36;70.75;100741.94;5038489;28;20079;-73
2023/03/28 03:33:34;;;;;;;0.28;0.20;;;;;;;-2.35;70.22;100741.13;5036998;28;20065;-72
2023/03/28 03:36:01;;;;;;;0.40;0.20;;;;;;;-2.39;70.47;100738.38;5037302;28;20049;-72
2023/03/28 03:38:28;;;;;;;1.15;0.30;;;;;;;-2.33;70.81;100759.09;5037977;28;20048;-73
2023/03/28 03:40:55;;;;;;;1.73;0.10;;;;;;;-2.44;70.70;100732.28;5037556;28;20053;-71
2023/03/28 03:43:22;;;;;;;0.28;0.17;;;;;;;-2.36;70.35;100748.72;5039156;28;20060;-72
2023/03/28 03:45:49;;;;;;;1.05;0.95;;;;;;;-2.47;70.25;100733.03;5039326;28;20084;-72
2023/03/28 03:48:17;;;;;;;0.80;0.20;;;;;;;-2.34;70.66;100752.22;5037078;28;20156;-72
2023/03/28 03:50:44;;;;;;;1.75;0.20;;;;;;;-2.32;70.45;100760.81;5037383;28;20473;-72
2023/03/28 03:53:11;;;;;;;0.65;0.20;;;;;;;-2.32;70.81;100761.69;5037559;28;20049;-72
2023/03/28 03:55:38;;;;;;;0.50;0.35;;;;;;;-2.39;70.65;100743.50;5034644;28;20056;-72
2023/03/28 03:58:06;;;;;;;0.15;0.05;;;;;;;-2.36;71.04;100758.97;5039988;28;20049;-72
2023/03/28 04:00:33;;;;;;;2.30;0.20;;;;;;;-2.30;70.83;100759.19;5039313;28;20053;-71
2023/03/28 04:03:00;;;;;;;0.50;0.20;;;;;;;-2.34;70.81;100754.78;5042180;28;20049;-72
2023/03/28 04:05:28;;;;;;;0.90;0.50;;;;;;;-2.35;70.59;100759.03;5040187;28;20429;-71
2023/03/28 04:07:58;;;;;;;0.95;0.15;;;;;;;-2.33;70.73;100766.75;5037603;28;20505;-72
2023/03/28 04:10:25;;;;;;;0.30;0.10;;;;;;;-2.32;70.51;100768.50;5035132;28;20050;-72
2023/03/28 04:12:51;;;;;;;0.38;0.13;;;;;;;-2.33;70.40;100772.75;5040136;28;20110;-71
2023/03/28 04:15:18;;;;;;;1.30;0.17;;;;;;;-2.31;70.68;100775.34;5041300;28;20051;-71
2023/03/28 04:17:48;;;;;;;0.20;0.10;;;;;;;-2.37;70.85;100777.69;5038043;28;20048;-71
2023/03/28 04:20:16;;;;;;;1.45;0.20;;;;;;;-2.29;71.02;100781.38;5036630;28;20444;-71
2023/03/28 04:22:44;;;;;;;1.02;0.10;;;;;;;-2.33;70.52;100769.31;5040878;28;20045;-71
2023/03/28 04:25:12;;;;;;;1.48;0.20;;;;;;;-2.31;70.65;100776.19;5037350;28;20133;-71
2023/03/28 04:27:40;;;;;;;0.50;0.20;;;;;;;-2.29;70.74;100781.38;5035431;28;20424;-72
2023/03/28 04:30:09;;;;;;;0.82;0.20;;;;;;;-2.29;71.15;100779.69;5033731;28;20053;-72
2023/03/28 04:32:39;;;;;;;0.82;0.25;;;;;;;-2.44;70.72;100763.84;5037072;28;20052;-71
2023/03/28 04:35:07;;;;;;;2.10;0.20;;;;;;;-2.29;70.73;100781.38;5033447;28;20078;-72
2023/03/28 04:37:36;;;;;;;1.20;0.10;;;;;;;-2.33;70.79;100779.56;5040293;28;20099;-72
2023/03/28 04:40:09;;;;;;;0.52;0.20;;;;;;;-2.32;70.78;100787.25;5036213;28;20508;-72
2023/03/28 04:42:36;;;;;;;2.78;0.20;;;;;;;-2.29;70.88;100789.91;5034279;28;20053;-71
2023/03/28 04:45:05;;;;;;;2.58;0.22;;;;;;;-2.28;70.80;100796.81;5032967;28;20072;-72
2023/03/28 04:47:32;;;;;;;0.25;0.20;;;;;;;-2.28;70.57;100793.34;5037759;28;20140;-72
2023/03/28 04:49:59;;;;;;;0.57;0.10;;;;;;;-2.31;71.09;100793.25;5036000;28;20053;-72
2023/03/28 04:52:26;;;;;;;0.55;0.50;;;;;;;-2.28;70.38;100789.13;5036340;28;20056;-71
2023/03/28 04:54:52;;;;;;;0.55;0.10;;;;;;;-2.26;70.66;100789.16;5035375;28;20045;-73
2023/03/28 04:57:21;;;;;;;0.95;0.20;;;;;;;-2.27;70.46;100795.09;5035668;28;20041;-72
2023/03/28 04:59:48;;;;;;;1.58;0.10;;;;;;;-2.28;70.29;100794.25;5034696;28;20053;-72
2023/03/28 05:02:15;;;;;;;0.13;0.08;;;;;;;-2.27;70.78;100795.09;5037303;28;20064;-72
2023/03/28 05:04:43;;;;;;;0.65;0.20;;;;;;;-2.27;70.88;100805.34;5038003;28;20052;-71
2023/03/28 05:07:09;;;;;;;1.25;0.57;;;;;;;-2.28;70.69;100803.59;5037665;28;20040;-71
2023/03/28 05:09:36;;;;;;;0.80;0.10;;;;;;;-2.28;70.75;100806.13;5038485;28;20508;-72
2023/03/28 05:12:04;;;;;;;0.90;0.30;;;;;;;-2.29;70.62;100812.94;5033877;28;20493;-71
2023/03/28 05:14:32;;;;;;;0.38;0.30;;;;;;;-2.30;70.37;100813.78;5033331;28;20105;-71
2023/03/28 05:16:59;;;;;;;1.98;0.10;;;;;;;-2.30;70.71;100810.34;5022462;28;20760;-71
2023/03/28 05:19:26;;;;;;;1.67;0.10;;;;;;;-2.30;70.52;100825.72;5035661;28;20760;-72
2023/03/28 05:21:53;;;;;;;0.43;0.20;;;;;;;-2.30;70.68;100820.59;5000819;28;20061;-72
2023/03/28 05:24:19;;;;;;;0.22;0.10;;;;;;;-2.29;70.88;100827.44;5036392;28;20049;-72
2023/03/28 05:26:46;;;;;;;0.30;0.10;;;;;;;-2.29;70.83;100824.88;5036748;28;20045;-72
2023/03/28 05:29:13;;;;;;;0.60;0.10;;;;;;;-2.30;70.83;100830.81;5038603;28;20041;-72
2023/03/28 05:31:41;;;;;;;1.95;0.20;;;;;;;-2.42;70.66;100807.34;5038508;28;20044;-72
2023/03/28 05:34:08;;;;;;;0.10;0.03;;;;;;;-2.27;70.78;100833.50;5038753;28;20052;-72
2023/03/28 05:36:35;;;;;;;0.10;0.10;;;;;;;-2.27;70.76;100846.28;5037600;28;20056;-72
2023/03/28 05:39:03;;;;;;;0.28;0.10;;;;;;;-2.27;71.04;100841.16;5034533;28;20049;-73
2023/03/28 05:41:30;;;;;;;0.52;0.20;;;;;;;-2.28;70.98;100847.06;5037088;28;20136;-72
2023/03/28 05:43:57;;;;;;;2.85;0.13;;;;;;;-2.27;70.73;100846.28;5036654;28;20506;-72
2023/03/28 05:46:24;;;;;;;0.52;0.10;;;;;;;-2.27;71.36;100848.84;5038724;28;20056;-72
2023/03/28 05:48:53;;;;;;;0.45;0.10;;;;;;;-2.26;70.52;100859.09;5036497;28;20041;-72
2023/03/28 05:51:19;;;;;;;0.98;0.20;;;;;;;-2.23;71.16;100872.84;5043092;28;20051;-72
2023/03/28 05:53:46;;;;;;;2.90;0.10;;;;;;;-2.22;70.75;100864.31;5041983;28;20398;-71
2023/03/28 05:56:13;;;;;;;1.08;0.20;;;;;;;-2.29;71.26;100868.38;5039074;28;20053;-74
2023/03/28 05:58:40;;;;;;;4.40;0.20;;;;;;;-2.21;70.62;100872.06;5037346;28;20053;-72
2023/03/28 06:01:08;;;;;;;2.05;0.20;;;;;;;-2.22;70.72;100872.00;5040209;28;20063;-72
2023/03/28 06:03:38;;;;;;;0.15;0.10;;;;;;;-2.23;70.75;100862.59;5037753;28;20073;-72
2023/03/28 06:06:08;;;;;;;0.25;0.10;;;;;;;-2.20;70.50;100878.06;5037793;28;20044;-72
2023/03/28 06:08:35;;;;;;;1.65;0.25;;;;;;;-2.18;71.03;100884.97;5042262;28;20060;-72
2023/03/28 06:11:03;;;;;;;1.73;0.20;;;;;;;-2.18;70.71;100879.84;5041403;28;20847;-72
2023/03/28 06:13:30;;;;;;;1.88;0.10;;;;;;;-2.23;70.99;100876.25;5040164;28;20513;-73
2023/03/28 06:15:57;;;;;;;0.20;0.20;;;;;;;-2.32;70.86;100855.47;5036991;28;20065;-73
2023/03/28 06:18:24;;;;;;;2.55;0.50;;;;;;;-2.14;70.62;100896.19;5036269;28;20048;-72
2023/03/28 06:20:51;;;;;;;0.20;0.10;;;;;;;-2.13;70.85;100895.38;5038573;28;20053;-72
2023/03/28 06:23:19;;;;;;;1.77;0.20;;;;;;;-2.19;70.59;100896.03;5043249;28;20051;-72
2023/03/28 06:25:46;;;;;;;0.52;0.20;;;;;;;-2.12;70.38;100905.66;5038236;28;20052;-73
2023/03/28 06:28:13;;;;;;;0.30;0.20;;;;;;;-2.12;70.76;100913.34;5038004;28;20049;-72
2023/03/28 06:30:40;;;;;;;1.65;0.20;;;;;;;-2.10;70.77;100914.28;5041622;28;20053;-72
2023/03/28 06:33:07;;;;;;;1.73;0.30;;;;;;;-2.11;70.62;100919.31;5041136;28;20045;-72
2023/03/28 06:35:34;;;;;;;0.88;0.20;;;;;;;-2.09;70.47;100918.56;5040392;28;20059;-73
2023/03/28 06:38:02;;;;;;;2.40;0.28;;;;;;;-2.07;70.81;100922.03;5040189;28;20069;-72
2023/03/28 06:40:30;;;;;;;0.28;0.20;;;;;;;-2.03;70.38;100931.56;5039051;28;20087;-72
2023/03/28 06:42:57;;;;;;;2.42;0.30;;;;;;;-2.03;70.69;100923.88;5043070;28;20052;-73
2023/03/28 06:45:24;;;;;;;1.27;0.30;;;;;;;-2.04;70.35;100927.28;5039952;28;20056;-73
2023/03/28 06:47:52;;;;;;;0.20;0.10;;;;;;;-1.98;70.62;100930.88;5039911;28;20060;-72
2023/03/28 06:50:19;;;;;;;1.92;0.30;;;;;;;-1.97;70.42;100932.59;5039112;28;20048;-72
2023/03/28 06:52:46;;;;;;;3.33;0.20;;;;;;;-1.99;69.62;100934.22;5038840;28;20878;-72
2023/03/28 06:55:13;;;;;;;0.60;0.20;;;;;;;-1.94;70.00;100943.81;5035894;28;20433;-72
2023/03/28 06:57:41;;;;;;;0.80;0.30;;;;;;;-1.94;69.99;100945.50;5035781;28;20053;-72
2023/03/28 07:00:10;;;;;;;1.30;0.20;;;;;;;-1.97;69.89;100948.81;5035613;28;20488;-72
2023/03/28 07:02:37;;;;;;;0.30;0.20;;;;;;;-1.95;70.21;100949.75;5036830;28;20053;-72
2023/03/28 07:05:04;;;;;;;1.02;0.20;;;;;;;-1.96;69.68;100952.28;5042013;28;20053;-72
2023/03/28 07:07:31;;;;;;;0.68;0.30;;;;;;;-1.92;70.00;100959.25;5038793;28;20074;-72
2023/03/28 07:09:58;;;;;;;0.85;0.40;;;;;;;-1.96;69.63;100958.28;5039401;28;20053;-72
2023/03/28 07:12:25;;;;;;;1.42;0.30;;;;;;;-1.91;69.63;100966.09;5038816;28;20048;-72
2023/03/28 07:14:53;;;;;;;4.60;0.20;;;;;;;-1.89;69.87;100967.88;5040219;28;20072;-72
2023/03/28 07:17:20;;;;;;;0.63;0.30;;;;;;;-1.88;69.97;100964.53;5035318;28;20041;-72
2023/03/28 07:19:49;;;;;;;2.40;0.30;;;;;;;-1.87;70.01;100971.38;5040510;28;20102;-73
2023/03/28 07:22:16;;;;;;;0.08;0.08;;;;;;;-1.85;69.77;100982.56;5036098;28;20053;-72
2023/03/28 07:24:43;;;;;;;0.20;0.20;;;;;;;-1.83;69.60;100986.03;5036617;28;20056;-72
2023/03/28 07:27:10;;;;;;;2.95;0.20;;;;;;;-1.81;69.38;100980.97;5042183;28;20049;-72
2023/03/28 07:29:37;;;;;;;0.90;0.20;;;;;;;-1.79;69.71;100989.59;5038514;28;20045;-72
2023/03/28 07:32:06;;;;;;;1.20;0.40;;;;;;;-1.80;69.71;100985.25;5034642;28;20053;-72
2023/03/28 07:34:33;;;;;;;0.20;0.13;;;;;;;-1.75;69.69;100993.97;5035463;28;20050;-72
2023/03/28 07:37:00;;;;;;;0.25;0.20;;;;;;;-1.78;69.65;100983.63;5034813;28;20494;-72
2023/03/28 07:39:27;;;;;;;3.40;0.40;;;;;;;-1.77;69.26;100987.94;5038761;28;20160;-72
2023/03/28 07:41:54;;;;;;;0.63;0.20;;;;;;;-1.70;69.48;101001.84;5040483;28;20065;-72
2023/03/28 07:44:20;;;;;;;0.47;0.20;;;;;;;-1.70;69.33;101005.25;5038173;28;20049;-72
2023/03/28 07:46:50;;;;;;;0.20;0.20;;;;;;;-1.68;69.55;101011.31;5036014;28;20052;-72
2023/03/28 07:49:19;;;;;;;0.40;0.20;;;;;;;-1.66;69.06;101008.78;5032401;28;20049;-72
2023/03/28 07:51:46;;;;;;;0.20;0.20;;;;;;;-1.71;69.34;101000.94;5034772;28;20056;-72
2023/03/28 07:54:16;;;;;;;0.70;0.30;;;;;;;-1.70;69.45;101009.53;5034564;28;20059;-72
2023/03/28 07:56:44;;;;;;;0.32;0.20;;;;;;;-1.65;69.50;101014.00;5038999;28;20064;-72
2023/03/28 07:59:13;;;;;;;2.88;0.20;;;;;;;-1.65;69.11;101019.13;5041063;28;20095;-72
2023/03/28 08:01:40;;;;;;;1.17;0.20;;;;;;;-1.64;68.95;101020.84;5039633;28;20050;-72
2023/03/28 08:04:07;;;;;;;0.43;0.20;;;;;;;-1.64;68.92;101020.84;5037844;28;20044;-72
2023/03/28 08:06:37;;;;;;;0.35;0.20;;;;;;;-1.61;69.01;101020.94;5041162;28;20049;-72
2023/03/28 08:09:05;;;;;;;0.60;0.35;;;;;;;-1.60;69.30;101027.81;5035384;28;20049;-71
2023/03/28 08:11:33;;;;;;;0.77;0.22;;;;;;;-1.59;69.26;101034.69;5039147;28;20144;-72
2023/03/28 08:14:00;;;;;;;0.70;0.17;;;;;;;-1.57;69.10;101044.97;5038585;28;20432;-73
2023/03/28 08:16:27;;;;;;;0.52;0.20;;;;;;;-1.55;69.01;101035.66;5035974;28;20048;-72
2023/03/28 08:18:54;;;;;;;0.60;0.20;;;;;;;-1.53;68.78;101043.41;5037259;28;20056;-72
2023/03/28 08:21:22;;;;;;;0.60;0.20;;;;;;;-1.55;69.17;101037.34;5040349;28;20095;-72
2023/03/28 08:23:50;;;;;;;1.92;0.30;;;;;;;-1.50;68.89;101048.63;5035779;28;20049;-72
2023/03/28 08:26:17;;;;;;;0.30;0.20;;;;;;;-1.51;68.93;101057.13;5038438;28;20697;-72
2023/03/28 08:28:44;;;;;;;1.58;0.20;;;;;;;-1.50;68.60;101057.19;5035486;28;20057;-72
2023/03/28 08:31:14;;;;;;;0.82;0.20;;;;;;;-1.48;68.98;101059.78;5038039;28;20056;-72
2023/03/28 08:33:41;;;;;;;0.40;0.20;;;;;;;-1.47;68.73;101062.41;5032960;28;20107;-72
2023/03/28 08:36:13;;;;;;;0.30;0.10;;;;;;;-1.46;69.37;101063.28;5036702;28;20107;-76
2023/03/28 08:38:40;;;;;;;1.30;0.10;;;;;;;-1.44;68.52;101075.34;5038045;28;20147;-72
2023/03/28 08:41:26;;;;;;;0.80;0.30;;;;;;;-1.39;68.93;101068.69;5038352;28;20048;-72
2023/03/28 08:44:06;;;;;;;1.40;0.15;;;;;;;-1.36;68.88;101078.16;5037813;28;20044;-72
2023/03/28 08:46:36;;;;;;;0.68;0.20;;;;;;;-1.34;68.90;101080.78;5036729;28;20050;-73
2023/03/28 08:49:07;;;;;;;0.40;0.10;;;;;;;-1.31;69.00;101079.22;5036626;28;20074;-72
2023/03/28 08:51:37;;;;;;;1.90;0.20;;;;;;;-1.28;68.43;101079.31;5038689;28;20104;-72
2023/03/28 08:54:13;;;;;;;0.20;0.13;;;;;;;-1.25;68.39;101076.84;5035969;28;20417;-72
2023/03/28 08:56:44;;;;;;;1.55;0.28;;;;;;;-1.24;68.82;101076.03;5033300;28;20067;-73
2023/03/28 08:59:15;;;;;;;1.27;0.20;;;;;;;-1.19;68.33;101076.19;5040531;28;20055;-72
2023/03/28 09:01:43;;;;;;;0.35;0.20;;;;;;;-1.15;68.20;101091.72;5039462;28;20057;-72
2023/03/28 09:04:21;;;;;;;0.35;0.20;;;;;;;-1.11;68.69;101102.06;5037281;28;20053;-72
2023/03/28 09:06:53;;;;;;;0.88;0.30;;;;;;;-1.10;68.30;101093.56;5035016;28;20049;-72
2023/03/28 09:09:33;;;;;;;3.50;0.55;;;;;;;-1.03;68.29;101103.19;5040410;28;20042;-72
2023/03/28 09:12:18;;;;;;;1.67;0.20;;;;;;;-1.08;68.17;101089.34;5037665;28;20477;-72
2023/03/28 09:14:54;;;;;;;;;;;;;;;-0.96;67.90;101115.44;5036946;28;20076;-72
2023/03/28 09:17:28;;;;;;;0.52;0.20;;;;;;;-0.93;67.80;101110.41;5038843;28;19932;-72
2023/03/28 09:20:13;;;;;;;1.80;0.22;;;;;;;-0.93;68.09;101120.66;5036071;28;20052;-73
2023/03/28 09:22:52;;;;;;;2.95;0.25;;;;;;;-0.86;68.25;101119.16;5038110;28;20529;-74
2023/03/28 09:25:35;;;;;;;0.85;0.40;;;;;;;-0.83;68.03;101115.00;5041831;28;20044;-72
2023/03/28 09:28:14;;;;;;;0.85;0.20;;;;;;;-0.78;67.65;101115.16;5038402;28;20056;-72
2023/03/28 09:30:44;;;;;;;0.57;0.20;;;;;;;-0.76;67.85;101122.09;5041081;28;20074;-72
2023/03/28 09:33:14;;;;;;;0.47;0.20;;;;;;;-0.73;68.05;101129.88;5039756;28;20890;-71
2023/03/28 09:35:42;;;;;;;1.20;0.20;;;;;;;-0.70;67.86;101137.66;5039447;28;20131;-72
2023/03/28 09:38:19;;;;;;;0.28;0.20;;;;;;;-0.71;67.94;101117.97;5040875;28;20038;-72
2023/03/28 09:40:47;;;;;;;0.43;0.20;;;;;;;-0.64;67.53;101141.25;5044584;28;20045;-72
2023/03/28 09:43:24;;;;;;;0.30;0.30;;;;;;;-0.66;67.74;101140.34;5038944;28;20128;-72
2023/03/28 09:45:59;;;;;;;0.40;0.35;;;;;;;-0.64;67.38;101136.13;5042961;28;20056;-72
2023/03/28 09:48:28;;;;;;;0.63;0.10;;;;;;;-0.60;67.90;101151.66;5039093;28;20056;-72
2023/03/28 09:50:56;;;;;;;1.65;0.28;;;;;;;-0.57;67.96;101151.78;5042605;28;20045;-74
2023/03/28 09:53:26;;;;;;;0.60;0.35;;;;;;;-0.54;67.55;101157.03;5039313;28;20145;-73
2023/03/28 09:55:54;;;;;;;0.52;0.20;;;;;;;-0.50;67.08;101157.97;5039580;28;20068;-72
2023/03/28 09:58:23;;;;;;;0.28;0.10;;;;;;;-0.46;67.22;101165.84;5040510;28;20052;-72
2023/03/28 10:00:51;;;;;;;5.47;0.40;;;;;;;-0.47;67.87;101160.66;5039169;28;20045;-72
2023/03/28 10:03:27;;;;;;;0.40;0.10;;;;;;;-0.40;67.54;101169.41;5042591;28;20052;-72
2023/03/28 10:05:55;;;;;;;0.63;0.30;;;;;;;-0.39;67.44;101156.63;5042825;28;20531;-73
2023/03/28 10:08:25;;;;;;;1.58;0.35;;;;;;;-0.34;67.61;101175.63;5041358;28;20056;-73
2023/03/28 10:10:59;;;;;;;1.23;0.35;;;;;;;-0.32;66.99;101170.53;5035783;28;20143;-72
2023/03/28 10:13:27;;;;;;;0.93;0.28;;;;;;;-0.38;67.17;101163.50;5034196;28;20056;-72
2023/03/28 10:15:57;;;;;;;2.78;0.20;;;;;;;-0.34;66.58;101175.63;5036613;28;20091;-74
2023/03/28 10:18:27;;;;;;;3.03;0.85;;;;;;;-0.31;67.04;101180.84;5039583;28;20791;-72
2023/03/28 10:20:55;;;;;;;2.72;0.38;;;;;;;-0.28;66.83;101180.09;5038305;28;20075;-72
2023/03/28 10:23:23;;;;;;;1.55;0.30;;;;;;;-0.26;66.89;101187.03;5040187;28;20057;-72
2023/03/28 10:25:52;;;;;;;0.40;0.20;;;;;;;-0.24;66.74;101193.06;5037416;28;20049;-72
2023/03/28 10:28:30;;;;;;;0.80;0.30;;;;;;;-0.38;66.57;101158.38;5040208;28;20543;-73
2023/03/28 10:31:00;;;;;;;0.65;0.30;;;;;;;-0.20;66.40;101191.44;5037992;28;20052;-72
2023/03/28 10:33:32;;;;;;;1.58;0.65;;;;;;;-0.26;66.83;101188.69;5037693;28;20128;-72
2023/03/28 10:36:01;;;;;;;1.42;0.30;;;;;;;-0.21;66.56;101191.41;5035314;28;20046;-73
2023/03/28 10:38:35;;;;;;;0.28;0.28;;;;;;;-0.13;66.59;101205.38;5039357;28;20037;-72
2023/03/28 10:41:05;;;;;;;0.88;0.20;;;;;;;-0.09;66.81;101208.06;5036345;28;20481;-73
2023/03/28 10:43:36;;;;;;;2.33;0.30;;;;;;;-0.12;66.70;101212.25;5038875;28;20428;-73
2023/03/28 10:46:09;;;;;;;0.28;0.20;;;;;;;-0.11;66.93;101201.16;5041524;28;20044;-72
2023/03/28 10:48:38;;;;;;;1.02;0.38;;;;;;;-0.04;66.69;101215.94;5036917;28;20493;-73
2023/03/28 10:51:09;;;;;;;2.70;0.25;;;;;;;-0.06;66.78;101220.13;5039906;28;20056;-73
2023/03/28 10:53:53;;;;;;;1.52;0.30;;;;;;;0.01;66.27;101229.78;5026509;28;20051;-74
2023/03/28 10:56:28;;;;;;;3.17;0.28;;;;;;;-0.06;66.47;101223.59;5040184;28;20052;-73
2023/03/28 10:59:10;;;;;;;1.38;0.20;;;;;;;0.03;66.48;101235.88;5037288;28;20155;-73
2023/03/28 11:01:50;;;;;;;1.15;0.20;;;;;;;0.05;66.22;101239.31;5039597;28;20052;-73
2023/03/28 11:04:27;;;;;;;3.50;0.20;;;;;;;0.07;66.24;101241.97;5037310;28;20551;-73
2023/03/28 11:07:02;;;;;;;0.50;0.20;;;;;;;0.05;66.89;101241.03;5039447;28;20057;-72
2023/03/28 11:09:38;;;;;;;0.30;0.20;;;;;;;0.09;66.53;101238.63;5029278;28;20049;-73
2023/03/28 11:12:17;;;;;;;2.13;0.30;;;;;;;0.14;66.18;101249.91;5037486;28;20057;-73
2023/03/28 11:14:57;;;;;;;0.47;0.25;;;;;;;0.16;65.72;101261.09;5041230;28;20108;-73
2023/03/28 11:17:31;;;;;;;0.38;0.20;;;;;;;-0.01;65.69;101227.16;5036986;28;20526;-73
2023/03/28 11:20:17;;;;;;;1.30;0.38;;;;;;;0.19;64.93;101268.91;5039606;28;20406;-73
2023/03/28 11:22:51;;;;;;;;;;;;;;;0.21;65.21;101266.38;5038059;28;20571;-74
2023/03/28 11:25:23;;;;;;;2.25;0.30;;;;;;;0.21;65.34;101272.38;5039106;28;19931;-75
2023/03/28 11:28:00;;;;;;;3.90;0.45;;;;;;;0.24;65.48;101279.31;5040098;28;20056;-74
2023/03/28 11:30:32;;;;;;;0.40;0.10;;;;;;;0.26;65.49;101276.78;5039328;28;20945;-74
2023/03/28 11:33:08;;;;;;;0.90;0.15;;;;;;;0.29;65.73;101282.91;5039183;28;20452;-74
2023/03/28 11:35:39;;;;;;;0.73;0.20;;;;;;;0.34;66.33;101290.75;5039354;28;20052;-73
2023/03/28 11:38:13;;;;;;;0.50;0.30;;;;;;;0.40;65.47;101293.53;5038015;28;20048;-74
2023/03/28 11:40:49;;;;;;;3.28;0.20;;;;;;;0.42;66.21;101300.44;5031555;28;20045;-74
2023/03/28 11:43:24;;;;;;;0.47;0.22;;;;;;;0.42;65.44;101294.44;5038790;28;20048;-74